»·PEaware :: UAL384 KSAN-KSFO

UAL384 :: KSAN-KSFO

FLIGHT INFORMATION

Flight Status: Arrived
Operator:
United Airlines
More flights by this operator :: More flights under this callsign
Pilot: Vlad D. (11271)
Aircraft: MCDONNELL-DOUGLAS MD-80
(MD80)
More flights by this aircraft type
Origin: KSAN San Diego Intl-Lindbergh
United States
Destination: KSFO San Francisco Intl
United States
More flights between these airports :: More routes between these airports
Route: PEBLE6 SXC VTU RZS SERFR SERFR2
File this flight plan on PilotEdge
Remarks:
Altitude:
(Current/Filed)
34,000ft
Speed:
(Current/Filed)
450kts
Departed: 01-Jun-16 08:11 AM
Arrived: 01-Jun-16 09:20 AM
Distance/Time
Traveled:
388nm/1:09
Distance/Time
To Go:
Arrived

Flight Plot

Page will automatically refresh every two minutes.


Map Options




Map Legend


Flown Route
Filed Route
Departure Airport
Arrival Airport
Navaid (VOR, NDB)
Fix

Horizontal Profiles

Position Reports

Time Latitude Longitude Heading Altitude Ground
Speed
01-Jun-16 07:18 37.613800 -122.389595 115 19ft 0kts
01-Jun-16 07:22 32.734914 -117.204222 170 23ft 0kts
01-Jun-16 07:23 32.734914 -117.204222 170 23ft 0kts
01-Jun-16 07:24 32.734914 -117.204222 170 23ft 0kts
01-Jun-16 07:25 32.734914 -117.204222 170 23ft 0kts
01-Jun-16 07:26 32.734914 -117.204222 170 23ft 0kts
01-Jun-16 07:27 32.734914 -117.204222 170 23ft 0kts
01-Jun-16 07:28 32.734914 -117.204222 170 23ft 0kts
01-Jun-16 07:29 32.734914 -117.204222 170 23ft 0kts
01-Jun-16 07:30 32.734914 -117.204222 170 23ft 0kts
01-Jun-16 07:31 32.734914 -117.204222 170 23ft 0kts
01-Jun-16 07:32 32.734914 -117.204222 170 23ft 0kts
01-Jun-16 07:33 32.734914 -117.204222 170 23ft 0kts
01-Jun-16 07:34 32.734914 -117.204222 170 23ft 0kts
01-Jun-16 07:35 32.734914 -117.204222 170 23ft 0kts
01-Jun-16 07:36 32.734914 -117.204222 170 23ft 0kts
01-Jun-16 07:37 32.734914 -117.204222 170 23ft 0kts
01-Jun-16 07:38 32.734914 -117.204222 170 23ft 0kts
01-Jun-16 07:39 32.734914 -117.204222 170 23ft 0kts
01-Jun-16 07:40 32.734914 -117.204222 170 23ft 0kts
01-Jun-16 07:41 32.734914 -117.204222 170 23ft 0kts
01-Jun-16 07:42 32.734914 -117.204222 170 23ft 0kts
01-Jun-16 07:43 32.734861 -117.204209 170 23ft 0kts
01-Jun-16 07:44 32.734692 -117.204168 170 23ft 0kts
01-Jun-16 07:45 32.734678 -117.204164 170 23ft 0kts
01-Jun-16 07:46 32.734678 -117.204164 170 23ft 0kts
01-Jun-16 07:47 32.735098 -117.204259 170 23ft 0kts
01-Jun-16 07:48 32.735354 -117.204427 94 23ft 0kts
01-Jun-16 07:49 32.735354 -117.204427 94 23ft 0kts
01-Jun-16 07:50 32.735368 -117.204157 80 23ft 0kts
01-Jun-16 07:51 32.735368 -117.204157 80 23ft 0kts
01-Jun-16 07:52 32.735558 -117.203352 72 23ft 7kts
01-Jun-16 07:53 32.735141 -117.200494 106 23ft 9kts
01-Jun-16 07:54 32.734487 -117.197779 105 23ft 8kts
01-Jun-16 07:55 32.733906 -117.195390 106 23ft 7kts
01-Jun-16 07:56 32.733393 -117.193297 106 23ft 6kts
01-Jun-16 07:57 32.733032 -117.191799 105 23ft 5kts
01-Jun-16 07:58 32.732647 -117.190201 106 23ft 7kts
01-Jun-16 07:59 32.732003 -117.187520 105 23ft 6kts
01-Jun-16 08:00 32.731695 -117.186196 105 23ft 4kts
01-Jun-16 08:01 32.730950 -117.183181 106 23ft 13kts
01-Jun-16 08:02 32.730293 -117.180400 106 23ft 5kts
01-Jun-16 08:03 32.729591 -117.177647 107 23ft 3kts
01-Jun-16 08:04 32.729558 -117.177518 106 23ft 3kts
01-Jun-16 08:06 32.729503 -117.176816 75 23ft 0kts
01-Jun-16 08:07 32.729503 -117.176816 75 23ft 0kts
01-Jun-16 08:08 32.730119 -117.176040 323 23ft 8kts
01-Jun-16 08:09 32.732330 -117.184565 286 23ft 113kts
01-Jun-16 08:10 32.751369 -117.231247 304 1558ft 177kts
01-Jun-16 08:11 32.783805 -117.287637 304 3396ft 237kts
01-Jun-16 08:12 32.824567 -117.358531 304 5266ft 269kts
01-Jun-16 08:13 32.867285 -117.432794 304 7067ft 276kts
01-Jun-16 08:14 32.927378 -117.489761 314 8882ft 284kts
01-Jun-16 08:15 32.978025 -117.563670 314 10756ft 304kts
01-Jun-16 08:16 33.044918 -117.642550 316 12651ft 359kts
01-Jun-16 08:17 33.113301 -117.730582 307 14458ft 368kts
01-Jun-16 08:18 33.176512 -117.828187 302 16253ft 378kts
01-Jun-16 08:19 33.218254 -117.945047 291 18078ft 388kts
01-Jun-16 08:20 33.258088 -118.064843 291 19868ft 385kts
01-Jun-16 08:21 33.298084 -118.185734 291 21678ft 397kts
01-Jun-16 08:22 33.339171 -118.310419 291 22986ft 408kts
01-Jun-16 08:23 33.390890 -118.428395 318 23693ft 407kts
01-Jun-16 08:24 33.482899 -118.510881 324 25222ft 419kts
01-Jun-16 08:25 33.579361 -118.592560 325 26735ft 429kts
01-Jun-16 08:26 33.677422 -118.675473 324 28237ft 440kts
01-Jun-16 08:27 33.777608 -118.760447 324 29731ft 440kts
01-Jun-16 08:28 33.876720 -118.844963 324 31214ft 437kts
01-Jun-16 08:29 33.975486 -118.929432 324 32701ft 434kts
01-Jun-16 08:30 34.072346 -119.012504 324 34001ft 428kts
01-Jun-16 08:31 34.152352 -119.117724 304 34000ft 430kts
01-Jun-16 08:32 34.218510 -119.237476 303 34000ft 430kts
01-Jun-16 08:33 34.284537 -119.358057 303 34000ft 430kts
01-Jun-16 08:34 34.350587 -119.478843 303 33999ft 430kts
01-Jun-16 08:35 34.416318 -119.599446 303 34000ft 430kts
01-Jun-16 08:36 34.482170 -119.720074 303 34000ft 430kts
01-Jun-16 08:37 34.563870 -119.824637 320 34001ft 430kts
01-Jun-16 08:38 34.656099 -119.917241 320 34000ft 430kts
01-Jun-16 08:39 34.748188 -120.009578 320 34000ft 430kts
01-Jun-16 08:40 34.840409 -120.102316 320 33999ft 430kts
01-Jun-16 08:41 34.932568 -120.195270 320 33999ft 430kts
01-Jun-16 08:42 35.024324 -120.288096 320 34000ft 430kts
01-Jun-16 08:43 35.115763 -120.380882 320 34000ft 430kts
01-Jun-16 08:44 35.207638 -120.474393 320 33999ft 430kts
01-Jun-16 08:45 35.299494 -120.568173 320 34000ft 430kts
01-Jun-16 08:46 35.391110 -120.661938 320 33999ft 430kts
01-Jun-16 08:47 35.482779 -120.755627 319 34000ft 430kts
01-Jun-16 08:48 35.574287 -120.849893 319 33999ft 430kts
01-Jun-16 08:49 35.665685 -120.944360 319 34000ft 430kts
01-Jun-16 08:50 35.757049 -121.039079 319 33999ft 430kts
01-Jun-16 08:51 35.848634 -121.134324 319 34000ft 430kts
01-Jun-16 08:52 35.937681 -121.227215 319 33024ft 414kts
01-Jun-16 08:53 36.025778 -121.319392 319 31544ft 418kts
01-Jun-16 08:54 36.112543 -121.410146 323 30090ft 421kts
01-Jun-16 08:55 36.212885 -121.478278 328 28419ft 400kts
01-Jun-16 08:56 36.290586 -121.538480 328 26918ft 394kts
01-Jun-16 08:57 36.395783 -121.621014 328 24592ft 374kts
01-Jun-16 08:58 36.481940 -121.688417 327 22583ft 360kts
01-Jun-16 08:59 36.551192 -121.743133 327 20911ft 350kts
01-Jun-16 09:00 36.605827 -121.833332 272 18940ft 335kts
01-Jun-16 09:01 36.651426 -121.923328 339 17003ft 321kts
01-Jun-16 09:02 36.734315 -121.905371 14 15065ft 311kts
01-Jun-16 09:03 36.818848 -121.916280 348 13107ft 307kts
01-Jun-16 09:04 36.901639 -121.938894 347 11116ft 305kts
01-Jun-16 09:05 36.981915 -121.964826 342 9749ft 288kts
01-Jun-16 09:06 37.057402 -121.994216 342 8466ft 282kts
01-Jun-16 09:07 37.130417 -122.022761 342 7449ft 267kts
01-Jun-16 09:08 37.200776 -122.050325 342 6446ft 263kts
01-Jun-16 09:09 37.270155 -122.077553 342 6041ft 261kts
01-Jun-16 09:10 37.339743 -122.104918 342 5887ft 263kts
01-Jun-16 09:11 37.408336 -122.131923 342 4413ft 255kts
01-Jun-16 09:12 37.473704 -122.156438 347 3606ft 235kts
01-Jun-16 09:13 37.532473 -122.179376 313 2678ft 218kts
01-Jun-16 09:14 37.561061 -122.238643 299 1869ft 166kts
01-Jun-16 09:15 37.580362 -122.283917 298 971ft 141kts
01-Jun-16 09:16 37.598793 -122.327795 297 599ft 141kts
01-Jun-16 09:17 37.616519 -122.369714 298 37ft 125kts
01-Jun-16 09:18 37.621351 -122.383094 209 19ft 5kts
01-Jun-16 09:19 37.621295 -122.383127 204 19ft 0kts
01-Jun-16 09:20 37.621295 -122.383127 204 19ft 0kts
01-Jun-16 09:21 37.620152 -122.383678 211 19ft 3kts
01-Jun-16 09:22 37.619859 -122.383919 214 19ft 0kts
01-Jun-16 09:23 37.619859 -122.383919 214 19ft 0kts
01-Jun-16 09:24 37.619859 -122.383919 214 19ft 0kts
01-Jun-16 09:25 37.619859 -122.383919 214 19ft 0kts

Navigation Log

Ident Type
Flight plan parsing failed, navigation log unavailable